sensor_id;sensor_type;location;lat;lon;timestamp;pressure;altitude;pressure_sealevel;temperature;humidity
66164;BME280;52962;51.088;3.096;2022-10-16T00:01:34;100656.22;;;13.74;100.00
66164;BME280;52962;51.088;3.096;2022-10-16T00:04:02;100665.94;;;13.75;100.00
66164;BME280;52962;51.088;3.096;2022-10-16T00:06:31;100669.50;;;13.80;100.00
66164;BME280;52962;51.088;3.096;2022-10-16T00:09:00;100665.09;;;13.81;100.00
66164;BME280;52962;51.088;3.096;2022-10-16T00:11:30;100672.16;;;13.85;100.00
66164;BME280;52962;51.088;3.096;2022-10-16T00:14:01;100674.81;;;13.88;100.00
66164;BME280;52962;51.088;3.096;2022-10-16T00:16:30;100671.31;;;13.92;100.00
66164;BME280;52962;51.088;3.096;2022-10-16T00:18:58;100673.97;;;13.95;100.00
66164;BME280;52962;51.088;3.096;2022-10-16T00:21:28;100661.63;;;13.97;100.00
66164;BME280;52962;51.088;3.096;2022-10-16T00:23:57;100651.91;;;13.97;100.00
66164;BME280;52962;51.088;3.096;2022-10-16T00:26:30;100658.09;;;13.99;100.00
66164;BME280;52962;51.088;3.096;2022-10-16T00:28:58;100653.69;;;13.98;100.00
66164;BME280;52962;51.088;3.096;2022-10-16T00:31:26;100650.16;;;13.96;100.00
66164;BME280;52962;51.088;3.096;2022-10-16T00:33:54;100651.03;;;13.94;100.00
66164;BME280;52962;51.088;3.096;2022-10-16T00:36:24;100656.31;;;13.92;100.00
66164;BME280;52962;51.088;3.096;2022-10-16T00:38:53;100654.53;;;13.90;100.00
66164;BME280;52962;51.088;3.096;2022-10-16T00:41:23;100658.06;;;13.87;100.00
66164;BME280;52962;51.088;3.096;2022-10-16T00:43:53;100658.03;;;13.83;100.00
66164;BME280;52962;51.088;3.096;2022-10-16T00:46:23;100659.81;;;13.82;100.00
66164;BME280;52962;51.088;3.096;2022-10-16T00:48:57;100651.88;;;13.82;100.00
66164;BME280;52962;51.088;3.096;2022-10-16T00:51:30;100659.78;;;13.81;100.00
66164;BME280;52962;51.088;3.096;2022-10-16T00:54:00;100658.91;;;13.79;100.00
66164;BME280;52962;51.088;3.096;2022-10-16T00:56:28;100666.81;;;13.75;100.00
66164;BME280;52962;51.088;3.096;2022-10-16T00:58:59;100654.47;;;13.78;100.00
66164;BME280;52962;51.088;3.096;2022-10-16T01:01:29;100670.34;;;13.74;100.00
66164;BME280;52962;51.088;3.096;2022-10-16T01:03:57;100658.88;;;13.75;100.00
66164;BME280;52962;51.088;3.096;2022-10-16T01:06:29;100652.69;;;13.70;100.00
66164;BME280;52962;51.088;3.096;2022-10-16T01:09:06;100664.13;;;13.66;100.00
66164;BME280;52962;51.088;3.096;2022-10-16T01:11:44;100680.00;;;13.66;100.00
66164;BME280;52962;51.088;3.096;2022-10-16T01:14:20;100675.59;;;13.64;100.00
66164;BME280;52962;51.088;3.096;2022-10-16T01:16:53;100670.28;;;13.62;100.00
66164;BME280;52962;51.088;3.096;2022-10-16T01:19:35;100669.41;;;13.60;100.00
66164;BME280;52962;51.088;3.096;2022-10-16T01:22:08;100668.50;;;13.60;100.00
66164;BME280;52962;51.088;3.096;2022-10-16T01:24:39;100671.13;;;13.57;100.00
66164;BME280;52962;51.088;3.096;2022-10-16T01:27:11;100678.19;;;13.56;100.00
66164;BME280;52962;51.088;3.096;2022-10-16T01:29:45;100679.06;;;13.52;100.00
66164;BME280;52962;51.088;3.096;2022-10-16T01:32:20;100689.66;;;13.49;100.00
66164;BME280;52962;51.088;3.096;2022-10-16T01:34:52;100672.91;;;13.49;100.00
66164;BME280;52962;51.088;3.096;2022-10-16T01:37:31;100671.13;;;13.49;100.00
66164;BME280;52962;51.088;3.096;2022-10-16T01:40:03;100680.81;;;13.47;100.00
66164;BME280;52962;51.088;3.096;2022-10-16T01:42:37;100683.47;;;13.49;100.00
66164;BME280;52962;51.088;3.096;2022-10-16T01:45:08;100683.47;;;13.46;100.00
66164;BME280;52962;51.088;3.096;2022-10-16T01:47:40;100682.56;;;13.45;100.00
66164;BME280;52962;51.088;3.096;2022-10-16T01:50:08;100680.78;;;13.41;100.00
66164;BME280;52962;51.088;3.096;2022-10-16T01:52:39;100691.38;;;13.41;100.00
66164;BME280;52962;51.088;3.096;2022-10-16T01:55:10;100694.00;;;13.43;100.00
66164;BME280;52962;51.088;3.096;2022-10-16T01:57:44;100701.97;;;13.44;100.00
66164;BME280;52962;51.088;3.096;2022-10-16T02:00:16;100703.69;;;13.39;100.00
66164;BME280;52962;51.088;3.096;2022-10-16T02:02:47;100700.16;;;13.40;100.00
66164;BME280;52962;51.088;3.096;2022-10-16T02:05:21;100696.63;;;13.39;100.00
66164;BME280;52962;51.088;3.096;2022-10-16T02:07:51;100696.66;;;13.41;100.00
66164;BME280;52962;51.088;3.096;2022-10-16T02:10:18;100694.88;;;13.38;100.00
66164;BME280;52962;51.088;3.096;2022-10-16T02:12:52;100692.25;;;13.41;100.00
66164;BME280;52962;51.088;3.096;2022-10-16T02:15:22;100703.69;;;13.39;100.00
66164;BME280;52962;51.088;3.096;2022-10-16T02:17:50;100700.16;;;13.40;100.00
66164;BME280;52962;51.088;3.096;2022-10-16T02:20:21;100701.91;;;13.38;100.00
66164;BME280;52962;51.088;3.096;2022-10-16T02:22:52;100705.44;;;13.37;100.00
66164;BME280;52962;51.088;3.096;2022-10-16T02:25:24;100712.47;;;13.35;100.00
66164;BME280;52962;51.088;3.096;2022-10-16T02:27:58;100709.81;;;13.33;100.00
66164;BME280;52962;51.088;3.096;2022-10-16T02:30:31;100709.84;;;13.35;100.00
66164;BME280;52962;51.088;3.096;2022-10-16T02:33:01;100707.19;;;13.33;100.00
66164;BME280;52962;51.088;3.096;2022-10-16T02:35:31;100707.16;;;13.32;100.00
66164;BME280;52962;51.088;3.096;2022-10-16T02:37:59;100717.72;;;13.30;100.00
66164;BME280;52962;51.088;3.096;2022-10-16T02:40:28;100715.97;;;13.29;100.00
66164;BME280;52962;51.088;3.096;2022-10-16T02:42:57;100716.84;;;13.28;100.00
66164;BME280;52962;51.088;3.096;2022-10-16T02:45:26;100708.91;;;13.27;100.00
66164;BME280;52962;51.088;3.096;2022-10-16T02:47:54;100717.69;;;13.26;100.00
66164;BME280;52962;51.088;3.096;2022-10-16T02:50:22;100711.50;;;13.24;100.00
66164;BME280;52962;51.088;3.096;2022-10-16T02:52:51;100717.69;;;13.23;100.00
66164;BME280;52962;51.088;3.096;2022-10-16T02:55:19;100717.69;;;13.23;100.00
66164;BME280;52962;51.088;3.096;2022-10-16T02:57:47;100719.44;;;13.22;100.00
66164;BME280;52962;51.088;3.096;2022-10-16T03:00:16;100723.81;;;13.20;100.00
66164;BME280;52962;51.088;3.096;2022-10-16T03:02:44;100724.69;;;13.18;100.00
66164;BME280;52962;51.088;3.096;2022-10-16T03:05:12;100734.31;;;13.14;100.00
66164;BME280;52962;51.088;3.096;2022-10-16T03:07:40;100737.84;;;13.13;100.00
66164;BME280;52962;51.088;3.096;2022-10-16T03:10:08;100736.94;;;13.11;100.00
66164;BME280;52962;51.088;3.096;2022-10-16T03:12:36;100738.69;;;13.10;100.00
66164;BME280;52962;51.088;3.096;2022-10-16T03:15:05;100736.94;;;13.09;100.00
66164;BME280;52962;51.088;3.096;2022-10-16T03:17:35;100743.97;;;13.07;100.00
66164;BME280;52962;51.088;3.096;2022-10-16T03:20:03;100736.91;;;13.08;100.00
66164;BME280;52962;51.088;3.096;2022-10-16T03:22:31;100738.66;;;13.07;100.00
66164;BME280;52962;51.088;3.096;2022-10-16T03:24:59;100739.53;;;13.05;100.00
66164;BME280;52962;51.088;3.096;2022-10-16T03:27:27;100743.94;;;13.06;100.00
66164;BME280;52962;51.088;3.096;2022-10-16T03:29:55;100752.78;;;13.09;100.00
66164;BME280;52962;51.088;3.096;2022-10-16T03:32:23;100747.50;;;13.09;100.00
66164;BME280;52962;51.088;3.096;2022-10-16T03:34:53;100754.56;;;13.10;100.00
66164;BME280;52962;51.088;3.096;2022-10-16T03:37:23;100761.63;;;13.12;100.00
66164;BME280;52962;51.088;3.096;2022-10-16T03:39:52;100752.78;;;13.09;100.00
66164;BME280;52962;51.088;3.096;2022-10-16T03:42:20;100747.50;;;13.08;100.00
66164;BME280;52962;51.088;3.096;2022-10-16T03:44:48;100755.38;;;13.05;100.00
66164;BME280;52962;51.088;3.096;2022-10-16T03:47:16;100764.22;;;13.05;100.00
66164;BME280;52962;51.088;3.096;2022-10-16T03:49:47;100760.72;;;13.09;100.00
66164;BME280;52962;51.088;3.096;2022-10-16T03:52:16;100765.13;;;13.09;100.00
66164;BME280;52962;51.088;3.096;2022-10-16T03:54:44;100775.69;;;13.07;100.00
66164;BME280;52962;51.088;3.096;2022-10-16T03:57:12;100778.31;;;13.07;100.00
66164;BME280;52962;51.088;3.096;2022-10-16T03:59:40;100782.78;;;13.13;100.00
66164;BME280;52962;51.088;3.096;2022-10-16T04:02:08;100781.09;;;13.17;100.00
66164;BME280;52962;51.088;3.096;2022-10-16T04:04:36;100787.19;;;13.14;100.00
66164;BME280;52962;51.088;3.096;2022-10-16T04:07:04;100788.13;;;13.16;100.00
66164;BME280;52962;51.088;3.096;2022-10-16T04:09:33;100783.69;;;13.15;100.00
66164;BME280;52962;51.088;3.096;2022-10-16T04:12:01;100787.16;;;13.09;100.00
66164;BME280;52962;51.088;3.096;2022-10-16T04:14:29;100790.66;;;13.07;100.00
66164;BME280;52962;51.088;3.096;2022-10-16T04:16:57;100795.06;;;13.06;100.00
66164;BME280;52962;51.088;3.096;2022-10-16T04:19:25;100796.81;;;13.06;100.00
66164;BME280;52962;51.088;3.096;2022-10-16T04:21:53;100801.16;;;13.01;100.00
66164;BME280;52962;51.088;3.096;2022-10-16T04:24:20;100802.03;;;12.98;100.00
66164;BME280;52962;51.088;3.096;2022-10-16T04:26:50;100802.00;;;12.95;100.00
66164;BME280;52962;51.088;3.096;2022-10-16T04:29:18;100805.50;;;12.94;100.00
66164;BME280;52962;51.088;3.096;2022-10-16T04:31:46;100809.91;;;12.92;100.00
66164;BME280;52962;51.088;3.096;2022-10-16T04:34:14;100808.13;;;12.93;100.00
66164;BME280;52962;51.088;3.096;2022-10-16T04:36:42;100801.94;;;12.91;100.00
66164;BME280;52962;51.088;3.096;2022-10-16T04:39:10;100796.63;;;12.88;100.00
66164;BME280;52962;51.088;3.096;2022-10-16T04:41:38;100808.97;;;12.87;100.00
66164;BME280;52962;51.088;3.096;2022-10-16T04:44:07;100813.41;;;12.90;100.00
66164;BME280;52962;51.088;3.096;2022-10-16T04:46:35;100819.53;;;12.87;100.00
66164;BME280;52962;51.088;3.096;2022-10-16T04:49:02;100827.47;;;12.89;100.00
66164;BME280;52962;51.088;3.096;2022-10-16T04:51:31;100834.53;;;12.88;100.00
66164;BME280;52962;51.088;3.096;2022-10-16T04:53:58;100838.94;;;12.89;100.00
66164;BME280;52962;51.088;3.096;2022-10-16T04:56:26;100847.72;;;12.88;100.00
66164;BME280;52962;51.088;3.096;2022-10-16T04:58:54;100843.34;;;12.89;100.00
66164;BME280;52962;51.088;3.096;2022-10-16T05:01:24;100847.78;;;12.91;100.00
66164;BME280;52962;51.088;3.096;2022-10-16T05:03:52;100838.06;;;12.90;100.00
66164;BME280;52962;51.088;3.096;2022-10-16T05:06:20;100856.56;;;12.90;100.00
66164;BME280;52962;51.088;3.096;2022-10-16T05:08:48;100861.03;;;12.96;100.00
66164;BME280;52962;51.088;3.096;2022-10-16T05:11:15;100858.44;;;13.00;100.00
66164;BME280;52962;51.088;3.096;2022-10-16T05:13:43;100870.81;;;13.04;100.00
66164;BME280;52962;51.088;3.096;2022-10-16T05:16:11;100865.59;;;13.10;100.00
66164;BME280;52962;51.088;3.096;2022-10-16T05:18:40;100870.09;;;13.16;100.00
66164;BME280;52962;51.088;3.096;2022-10-16T05:21:08;100869.25;;;13.19;100.00
66164;BME280;52962;51.088;3.096;2022-10-16T05:23:37;100864.00;;;13.22;100.00
66164;BME280;52962;51.088;3.096;2022-10-16T05:26:05;100872.78;;;13.21;100.00
66164;BME280;52962;51.088;3.096;2022-10-16T05:28:33;100874.53;;;13.17;100.00
66164;BME280;52962;51.088;3.096;2022-10-16T05:31:04;100882.44;;;13.17;100.00
66164;BME280;52962;51.088;3.096;2022-10-16T05:33:32;100886.88;;;13.18;100.00
66164;BME280;52962;51.088;3.096;2022-10-16T05:36:03;100890.41;;;13.19;100.00
66164;BME280;52962;51.088;3.096;2022-10-16T05:38:31;100899.13;;;13.15;100.00
66164;BME280;52962;51.088;3.096;2022-10-16T05:40:59;100902.66;;;13.15;100.00
66164;BME280;52962;51.088;3.096;2022-10-16T05:43:28;100896.47;;;13.13;100.00
66164;BME280;52962;51.088;3.096;2022-10-16T05:45:56;100905.28;;;13.14;100.00
66164;BME280;52962;51.088;3.096;2022-10-16T05:48:25;100912.31;;;13.12;100.00
66164;BME280;52962;51.088;3.096;2022-10-16T05:50:57;100911.47;;;13.13;100.00
66164;BME280;52962;51.088;3.096;2022-10-16T05:53:28;100910.53;;;13.09;100.00
66164;BME280;52962;51.088;3.096;2022-10-16T05:55:57;100916.72;;;13.09;100.00
66164;BME280;52962;51.088;3.096;2022-10-16T05:58:25;100920.19;;;13.05;100.00
66164;BME280;52962;51.088;3.096;2022-10-16T06:00:54;100914.91;;;13.05;100.00
66164;BME280;52962;51.088;3.096;2022-10-16T06:03:23;100920.16;;;13.04;100.00
66164;BME280;52962;51.088;3.096;2022-10-16T06:05:50;100925.38;;;12.98;100.00
66164;BME280;52962;51.088;3.096;2022-10-16T06:08:21;100938.63;;;12.99;100.00
66164;BME280;52962;51.088;3.096;2022-10-16T06:11:00;100941.25;;;12.99;100.00
66164;BME280;52962;51.088;3.096;2022-10-16T06:13:28;100938.59;;;12.96;100.00
66164;BME280;52962;51.088;3.096;2022-10-16T06:15:57;100941.22;;;12.96;100.00
66164;BME280;52962;51.088;3.096;2022-10-16T06:18:26;100950.91;;;12.96;100.00
66164;BME280;52962;51.088;3.096;2022-10-16T06:20:55;100942.94;;;12.91;100.00
66164;BME280;52962;51.088;3.096;2022-10-16T06:23:23;100949.97;;;12.91;100.00
66164;BME280;52962;51.088;3.096;2022-10-16T06:25:53;100951.69;;;12.89;100.00
66164;BME280;52962;51.088;3.096;2022-10-16T06:28:21;100960.47;;;12.86;100.00
66164;BME280;52962;51.088;3.096;2022-10-16T06:30:49;100947.25;;;12.86;100.00
66164;BME280;52962;51.088;3.096;2022-10-16T06:33:16;100956.09;;;12.87;100.00
66164;BME280;52962;51.088;3.096;2022-10-16T06:35:44;100958.72;;;12.87;100.00
66164;BME280;52962;51.088;3.096;2022-10-16T06:38:12;100966.63;;;12.85;100.00
66164;BME280;52962;51.088;3.096;2022-10-16T06:40:40;100966.63;;;12.84;100.00
66164;BME280;52962;51.088;3.096;2022-10-16T06:43:09;100972.81;;;12.86;100.00
66164;BME280;52962;51.088;3.096;2022-10-16T06:45:37;100979.84;;;12.85;100.00
66164;BME280;52962;51.088;3.096;2022-10-16T06:48:05;100980.75;;;12.86;100.00
66164;BME280;52962;51.088;3.096;2022-10-16T06:50:33;100989.50;;;12.83;100.00
66164;BME280;52962;51.088;3.096;2022-10-16T06:53:00;100990.41;;;12.85;100.00
66164;BME280;52962;51.088;3.096;2022-10-16T06:55:28;100994.84;;;12.86;100.00
66164;BME280;52962;51.088;3.096;2022-10-16T06:57:56;100993.09;;;12.87;100.00
66164;BME280;52962;51.088;3.096;2022-10-16T07:00:25;101001.03;;;12.88;100.00
66164;BME280;52962;51.088;3.096;2022-10-16T07:02:53;101006.31;;;12.88;100.00
66164;BME280;52962;51.088;3.096;2022-10-16T07:05:21;101012.56;;;12.93;100.00
66164;BME280;52962;51.088;3.096;2022-10-16T07:07:49;101019.63;;;12.96;100.00
66164;BME280;52962;51.088;3.096;2022-10-16T07:10:17;101025.81;;;12.96;100.00
66164;BME280;52962;51.088;3.096;2022-10-16T07:12:45;101028.47;;;12.96;100.00
66164;BME280;52962;51.088;3.096;2022-10-16T07:15:13;101029.31;;;12.94;100.00
66164;BME280;52962;51.088;3.096;2022-10-16T07:17:42;101034.75;;;13.04;100.00
66164;BME280;52962;51.088;3.096;2022-10-16T07:20:10;101036.56;;;13.10;100.00
66164;BME280;52962;51.088;3.096;2022-10-16T07:22:38;101044.56;;;13.15;100.00
66164;BME280;52962;51.088;3.096;2022-10-16T07:25:07;101045.50;;;13.17;100.00
66164;BME280;52962;51.088;3.096;2022-10-16T07:27:35;101059.69;;;13.22;100.00
66164;BME280;52962;51.088;3.096;2022-10-16T07:30:08;101060.59;;;13.24;100.00
66164;BME280;52962;51.088;3.096;2022-10-16T07:32:36;101068.63;;;13.33;100.00
66164;BME280;52962;51.088;3.096;2022-10-16T07:35:07;101077.59;;;13.43;100.00
66164;BME280;52962;51.088;3.096;2022-10-16T07:37:35;101080.34;;;13.52;100.00
66164;BME280;52962;51.088;3.096;2022-10-16T07:40:03;101089.22;;;13.58;100.00
66164;BME280;52962;51.088;3.096;2022-10-16T07:42:31;101071.56;;;13.59;100.00
66164;BME280;52962;51.088;3.096;2022-10-16T07:44:59;101086.63;;;13.64;100.00
66164;BME280;52962;51.088;3.096;2022-10-16T07:47:27;101087.50;;;13.63;100.00
66164;BME280;52962;51.088;3.096;2022-10-16T07:49:55;101084.84;;;13.63;100.00
66164;BME280;52962;51.088;3.096;2022-10-16T07:52:24;101093.69;;;13.65;100.00
66164;BME280;52962;51.088;3.096;2022-10-16T07:54:52;101104.31;;;13.68;100.00
66164;BME280;52962;51.088;3.096;2022-10-16T07:57:21;101109.66;;;13.71;100.00
66164;BME280;52962;51.088;3.096;2022-10-16T07:59:49;101114.94;;;13.71;100.00
66164;BME280;52962;51.088;3.096;2022-10-16T08:02:16;101112.34;;;13.76;100.00
66164;BME280;52962;51.088;3.096;2022-10-16T08:04:46;101109.75;;;13.81;100.00
66164;BME280;52962;51.088;3.096;2022-10-16T08:07:14;101119.53;;;13.85;100.00
66164;BME280;52962;51.088;3.096;2022-10-16T08:09:48;101106.34;;;13.89;100.00
66164;BME280;52962;51.088;3.096;2022-10-16T08:12:16;101116.06;;;13.92;100.00
66164;BME280;52962;51.088;3.096;2022-10-16T08:14:44;101125.81;;;13.96;100.00
66164;BME280;52962;51.088;3.096;2022-10-16T08:17:14;101114.53;;;14.14;100.00
66164;BME280;52962;51.088;3.096;2022-10-16T08:19:44;101130.56;;;14.26;100.00
66164;BME280;52962;51.088;3.096;2022-10-16T08:22:12;101124.50;;;14.37;100.00
66164;BME280;52962;51.088;3.096;2022-10-16T08:24:40;101129.03;;;14.46;100.00
66164;BME280;52962;51.088;3.096;2022-10-16T08:27:09;101128.19;;;14.52;100.00
66164;BME280;52962;51.088;3.096;2022-10-16T08:29:37;101129.09;;;14.57;100.00
66164;BME280;52962;51.088;3.096;2022-10-16T08:32:05;101131.81;;;14.66;100.00
66164;BME280;52962;51.088;3.096;2022-10-16T08:34:33;101136.34;;;14.79;100.00
66164;BME280;52962;51.088;3.096;2022-10-16T08:37:01;101138.19;;;14.89;100.00
66164;BME280;52962;51.088;3.096;2022-10-16T08:39:29;101145.41;;;15.09;100.00
66164;BME280;52962;51.088;3.096;2022-10-16T08:42:11;101144.53;;;15.13;100.00
66164;BME280;52962;51.088;3.096;2022-10-16T08:45:00;101150.75;;;15.16;100.00
66164;BME280;52962;51.088;3.096;2022-10-16T08:47:42;101158.72;;;15.18;100.00
66164;BME280;52962;51.088;3.096;2022-10-16T08:50:14;101161.34;;;15.12;100.00
66164;BME280;52962;51.088;3.096;2022-10-16T08:52:45;101157.72;;;15.00;100.00
66164;BME280;52962;51.088;3.096;2022-10-16T08:55:16;101165.63;;;14.93;100.00
66164;BME280;52962;51.088;3.096;2022-10-16T08:57:50;101155.91;;;14.95;100.00
66164;BME280;52962;51.088;3.096;2022-10-16T09:00:19;101165.69;;;15.03;100.00
66164;BME280;52962;51.088;3.096;2022-10-16T09:02:53;101162.19;;;15.08;100.00
66164;BME280;52962;51.088;3.096;2022-10-16T09:08:20;101164.84;;;15.08;100.00
66164;BME280;52962;51.088;3.096;2022-10-16T09:10:57;101173.72;;;15.11;100.00
66164;BME280;52962;51.088;3.096;2022-10-16T09:13:40;101173.72;;;15.13;100.00
66164;BME280;52962;51.088;3.096;2022-10-16T09:16:16;101167.59;;;15.23;100.00
66164;BME280;52962;51.088;3.096;2022-10-16T09:18:52;101165.00;;;15.33;100.00
66164;BME280;52962;51.088;3.096;2022-10-16T09:21:25;101170.41;;;15.50;100.00
66164;BME280;52962;51.088;3.096;2022-10-16T09:23:57;101173.09;;;15.53;100.00
66164;BME280;52962;51.088;3.096;2022-10-16T09:26:27;101164.31;;;15.57;100.00
66164;BME280;52962;51.088;3.096;2022-10-16T09:28:56;101162.50;;;15.56;100.00
66164;BME280;52962;51.088;3.096;2022-10-16T09:31:24;101167.78;;;15.56;100.00
66164;BME280;52962;51.088;3.096;2022-10-16T09:33:54;101173.13;;;15.62;100.00
66164;BME280;52962;51.088;3.096;2022-10-16T09:36:23;101180.22;;;15.60;100.00
66164;BME280;52962;51.088;3.096;2022-10-16T09:39:04;101182.00;;;15.64;100.00
66164;BME280;52962;51.088;3.096;2022-10-16T09:41:34;101189.13;;;15.75;100.00
66164;BME280;52962;51.088;3.096;2022-10-16T09:44:12;101190.91;;;15.79;100.00
66164;BME280;52962;51.088;3.096;2022-10-16T09:46:42;101182.09;;;15.86;100.00
66164;BME280;52962;51.088;3.096;2022-10-16T09:49:21;101182.13;;;15.89;100.00
66164;BME280;52962;51.088;3.096;2022-10-16T09:51:49;101178.59;;;15.97;100.00
66164;BME280;52962;51.088;3.096;2022-10-16T09:54:19;101177.72;;;16.01;100.00
66164;BME280;52962;51.088;3.096;2022-10-16T09:56:48;101179.50;;;16.04;100.00
66164;BME280;52962;51.088;3.096;2022-10-16T09:59:21;101175.09;;;16.03;100.00
66164;BME280;52962;51.088;3.096;2022-10-16T10:01:53;101176.03;;;16.20;100.00
66164;BME280;52962;51.088;3.096;2022-10-16T10:04:23;101178.72;;;16.32;100.00
66164;BME280;52962;51.088;3.096;2022-10-16T10:06:53;101176.97;;;16.44;100.00
66164;BME280;52962;51.088;3.096;2022-10-16T10:09:23;101172.56;;;16.56;100.00
66164;BME280;52962;51.088;3.096;2022-10-16T10:11:53;101177.00;;;16.65;100.00
66164;BME280;52962;51.088;3.096;2022-10-16T10:14:25;101174.34;;;16.68;100.00
66164;BME280;52962;51.088;3.096;2022-10-16T10:17:17;101179.66;;;16.79;100.00
66164;BME280;52962;51.088;3.096;2022-10-16T10:19:51;101177.00;;;16.83;100.00
66164;BME280;52962;51.088;3.096;2022-10-16T10:22:29;101181.44;;;16.78;100.00
66164;BME280;52962;51.088;3.096;2022-10-16T10:25:01;101181.44;;;16.84;100.00
66164;BME280;52962;51.088;3.096;2022-10-16T10:27:41;101188.53;;;16.84;100.00
66164;BME280;52962;51.088;3.096;2022-10-16T10:30:18;101194.72;;;16.99;100.00
66164;BME280;52962;51.088;3.096;2022-10-16T10:33:00;101188.53;;;17.13;100.00
66164;BME280;52962;51.088;3.096;2022-10-16T10:35:42;101195.59;;;17.21;100.00
66164;BME280;52962;51.088;3.096;2022-10-16T10:38:21;101190.28;;;17.27;100.00
66164;BME280;52962;51.088;3.096;2022-10-16T10:40:57;101184.03;;;17.45;100.00
66164;BME280;52962;51.088;3.096;2022-10-16T10:43:44;101187.56;;;17.58;100.00
66164;BME280;52962;51.088;3.096;2022-10-16T10:46:24;101189.34;;;17.54;100.00
66164;BME280;52962;51.088;3.096;2022-10-16T10:49:11;101187.56;;;17.53;100.00
66164;BME280;52962;51.088;3.096;2022-10-16T10:51:48;101186.66;;;17.57;100.00
66164;BME280;52962;51.088;3.096;2022-10-16T10:54:22;101191.09;;;17.64;100.00
66164;BME280;52962;51.088;3.096;2022-10-16T10:56:58;101187.53;;;17.69;100.00
66164;BME280;52962;51.088;3.096;2022-10-16T11:02:23;101184.84;;;17.75;100.00
66164;BME280;52962;51.088;3.096;2022-10-16T11:05:10;101188.41;;;17.69;100.00
66164;BME280;52962;51.088;3.096;2022-10-16T11:07:45;101186.63;;;17.68;100.00
66164;BME280;52962;51.088;3.096;2022-10-16T11:10:20;101198.16;;;17.75;100.00
66164;BME280;52962;51.088;3.096;2022-10-16T11:12:52;101199.91;;;17.82;100.00
66164;BME280;52962;51.088;3.096;2022-10-16T11:15:25;101208.78;;;17.87;100.00
66164;BME280;52962;51.088;3.096;2022-10-16T11:18:00;101192.75;;;17.91;100.00
66164;BME280;52962;51.088;3.096;2022-10-16T11:20:34;101192.69;;;18.07;100.00
66164;BME280;52962;51.088;3.096;2022-10-16T11:23:07;101195.28;;;18.25;100.00
66164;BME280;52962;51.088;3.096;2022-10-16T11:25:39;101203.25;;;18.29;100.00
66164;BME280;52962;51.088;3.096;2022-10-16T11:28:11;101192.59;;;18.28;100.00
66164;BME280;52962;51.088;3.096;2022-10-16T11:30:44;101189.88;;;18.39;100.00
66164;BME280;52962;51.088;3.096;2022-10-16T11:33:22;101188.94;;;18.46;100.00
66164;BME280;52962;51.088;3.096;2022-10-16T11:35:55;101190.66;;;18.53;100.00
66164;BME280;52962;51.088;3.096;2022-10-16T11:38:30;101187.13;;;18.51;100.00
66164;BME280;52962;51.088;3.096;2022-10-16T11:41:03;101180.03;;;18.48;100.00
66164;BME280;52962;51.088;3.096;2022-10-16T11:43:35;101177.31;;;18.56;100.00
66164;BME280;52962;51.088;3.096;2022-10-16T11:46:10;101183.50;;;18.58;100.00
66164;BME280;52962;51.088;3.096;2022-10-16T11:48:44;101176.41;;;18.63;100.00
66164;BME280;52962;51.088;3.096;2022-10-16T11:51:17;101184.34;;;18.71;100.00
66164;BME280;52962;51.088;3.096;2022-10-16T11:53:55;101183.44;;;18.72;100.00
66164;BME280;52962;51.088;3.096;2022-10-16T11:56:26;101186.13;;;18.69;100.00
66164;BME280;52962;51.088;3.096;2022-10-16T11:58:58;101186.03;;;18.78;100.00
66164;BME280;52962;51.088;3.096;2022-10-16T12:01:31;101187.78;;;18.83;100.00
66164;BME280;52962;51.088;3.096;2022-10-16T12:04:19;101183.31;;;18.85;100.00
66164;BME280;52962;51.088;3.096;2022-10-16T12:06:53;101190.38;;;18.92;100.00
66164;BME280;52962;51.088;3.096;2022-10-16T12:09:26;101188.56;;;18.94;100.00
66164;BME280;52962;51.088;3.096;2022-10-16T12:11:54;101183.13;;;19.07;100.00
66164;BME280;52962;51.088;3.096;2022-10-16T12:14:36;101195.44;;;19.21;100.00
66164;BME280;52962;51.088;3.096;2022-10-16T12:17:27;101183.84;;;19.24;100.00
66164;BME280;52962;51.088;3.096;2022-10-16T12:20:26;101186.47;;;19.30;100.00
66164;BME280;52962;51.088;3.096;2022-10-16T12:22:59;101184.66;;;19.32;100.00
66164;BME280;52962;51.088;3.096;2022-10-16T12:25:30;101181.13;;;19.30;100.00
66164;BME280;52962;51.088;3.096;2022-10-16T12:28:01;101176.78;;;19.18;100.00
66164;BME280;52962;51.088;3.096;2022-10-16T12:30:32;101180.34;;;19.19;100.00
66164;BME280;52962;51.088;3.096;2022-10-16T12:33:03;101182.09;;;19.23;100.00
66164;BME280;52962;51.088;3.096;2022-10-16T12:35:35;101188.31;;;19.23;100.00
66164;BME280;52962;51.088;3.096;2022-10-16T12:38:16;101170.53;;;19.21;100.00
66164;BME280;52962;51.088;3.096;2022-10-16T12:40:44;101181.25;;;19.18;100.00
66164;BME280;52962;51.088;3.096;2022-10-16T12:43:36;101168.81;;;19.14;100.00
66164;BME280;52962;51.088;3.096;2022-10-16T12:46:22;101177.78;;;19.07;100.00
66164;BME280;52962;51.088;3.096;2022-10-16T12:48:50;101168.09;;;18.97;100.00
66164;BME280;52962;51.088;3.096;2022-10-16T12:51:36;101174.06;;;19.23;100.00
66164;BME280;52962;51.088;3.096;2022-10-16T12:54:12;101153.44;;;19.37;100.00
66164;BME280;52962;51.088;3.096;2022-10-16T12:56:50;101166.78;;;19.40;100.00
66164;BME280;52962;51.088;3.096;2022-10-16T12:59:31;101168.53;;;19.41;100.00
66164;BME280;52962;51.088;3.096;2022-10-16T13:02:32;101162.41;;;19.33;100.00
66164;BME280;52962;51.088;3.096;2022-10-16T13:05:20;101161.59;;;19.25;100.00
66164;BME280;52962;51.088;3.096;2022-10-16T13:08:01;101169.59;;;19.25;100.00